sensor_id;sensor_type;location;lat;lon;timestamp;P1;durP1;ratioP1;P2;durP2;ratioP2
10142;SDS011;5112;54.088;13.446;2023-03-31T00:09:29;9.70;;;4.03;;
10142;SDS011;5112;54.088;13.446;2023-03-31T00:19:33;8.37;;;3.20;;
10142;SDS011;5112;54.088;13.446;2023-03-31T00:29:35;9.57;;;3.93;;
10142;SDS011;5112;54.088;13.446;2023-03-31T00:39:42;10.13;;;3.67;;
10142;SDS011;5112;54.088;13.446;2023-03-31T00:49:44;8.13;;;4.13;;
10142;SDS011;5112;54.088;13.446;2023-03-31T00:59:49;7.87;;;3.53;;
10142;SDS011;5112;54.088;13.446;2023-03-31T01:09:52;9.87;;;3.53;;
10142;SDS011;5112;54.088;13.446;2023-03-31T01:20:04;8.30;;;3.90;;
10142;SDS011;5112;54.088;13.446;2023-03-31T01:41:17;9.10;;;4.17;;
10142;SDS011;5112;54.088;13.446;2023-03-31T01:51:29;11.80;;;5.85;;
10142;SDS011;5112;54.088;13.446;2023-03-31T02:01:36;9.47;;;5.20;;
10142;SDS011;5112;54.088;13.446;2023-03-31T02:11:41;8.93;;;5.47;;
10142;SDS011;5112;54.088;13.446;2023-03-31T02:21:47;9.73;;;5.55;;
10142;SDS011;5112;54.088;13.446;2023-03-31T02:31:51;9.13;;;5.57;;
10142;SDS011;5112;54.088;13.446;2023-03-31T02:42:01;9.13;;;5.77;;
10142;SDS011;5112;54.088;13.446;2023-03-31T02:52:16;11.13;;;5.60;;
10142;SDS011;5112;54.088;13.446;2023-03-31T03:02:41;9.57;;;4.30;;
10142;SDS011;5112;54.088;13.446;2023-03-31T03:12:51;12.87;;;4.43;;
10142;SDS011;5112;54.088;13.446;2023-03-31T03:23:01;9.17;;;4.77;;
10142;SDS011;5112;54.088;13.446;2023-03-31T03:33:03;6.93;;;3.93;;
10142;SDS011;5112;54.088;13.446;2023-03-31T03:43:06;8.20;;;3.13;;
10142;SDS011;5112;54.088;13.446;2023-03-31T03:53:08;6.80;;;3.53;;
10142;SDS011;5112;54.088;13.446;2023-03-31T04:03:11;4.37;;;3.07;;
10142;SDS011;5112;54.088;13.446;2023-03-31T04:13:13;5.60;;;4.17;;
10142;SDS011;5112;54.088;13.446;2023-03-31T04:23:16;6.80;;;3.93;;
10142;SDS011;5112;54.088;13.446;2023-03-31T04:33:18;4.93;;;4.10;;
10142;SDS011;5112;54.088;13.446;2023-03-31T04:43:21;8.53;;;5.40;;
10142;SDS011;5112;54.088;13.446;2023-03-31T04:53:23;10.27;;;5.83;;
10142;SDS011;5112;54.088;13.446;2023-03-31T05:03:26;14.30;;;7.77;;
10142;SDS011;5112;54.088;13.446;2023-03-31T05:13:28;12.97;;;6.60;;
10142;SDS011;5112;54.088;13.446;2023-03-31T05:23:31;13.40;;;7.13;;
10142;SDS011;5112;54.088;13.446;2023-03-31T05:33:33;10.53;;;6.23;;
10142;SDS011;5112;54.088;13.446;2023-03-31T05:43:40;10.93;;;7.30;;
10142;SDS011;5112;54.088;13.446;2023-03-31T05:53:42;14.77;;;7.93;;
10142;SDS011;5112;54.088;13.446;2023-03-31T06:03:45;15.47;;;7.90;;
10142;SDS011;5112;54.088;13.446;2023-03-31T06:13:47;14.47;;;8.13;;
10142;SDS011;5112;54.088;13.446;2023-03-31T06:23:50;11.13;;;8.47;;
10142;SDS011;5112;54.088;13.446;2023-03-31T06:33:54;13.50;;;9.30;;
10142;SDS011;5112;54.088;13.446;2023-03-31T06:43:57;16.57;;;9.97;;
10142;SDS011;5112;54.088;13.446;2023-03-31T06:53:59;16.13;;;9.50;;
10142;SDS011;5112;54.088;13.446;2023-03-31T07:04:02;14.20;;;9.20;;
10142;SDS011;5112;54.088;13.446;2023-03-31T07:14:04;14.20;;;8.57;;
10142;SDS011;5112;54.088;13.446;2023-03-31T07:24:07;15.70;;;9.67;;
10142;SDS011;5112;54.088;13.446;2023-03-31T07:34:09;14.77;;;9.20;;
10142;SDS011;5112;54.088;13.446;2023-03-31T07:44:12;14.43;;;8.53;;
10142;SDS011;5112;54.088;13.446;2023-03-31T07:54:15;15.03;;;8.13;;
10142;SDS011;5112;54.088;13.446;2023-03-31T08:04:17;14.60;;;9.57;;
10142;SDS011;5112;54.088;13.446;2023-03-31T08:14:19;12.63;;;9.60;;
10142;SDS011;5112;54.088;13.446;2023-03-31T08:24:22;16.47;;;9.90;;
10142;SDS011;5112;54.088;13.446;2023-03-31T08:34:24;11.27;;;8.17;;
10142;SDS011;5112;54.088;13.446;2023-03-31T08:44:30;16.97;;;9.17;;
10142;SDS011;5112;54.088;13.446;2023-03-31T08:54:36;14.93;;;10.03;;
10142;SDS011;5112;54.088;13.446;2023-03-31T09:04:45;15.53;;;9.37;;
10142;SDS011;5112;54.088;13.446;2023-03-31T09:15:11;13.13;;;9.80;;
10142;SDS011;5112;54.088;13.446;2023-03-31T09:25:35;12.90;;;9.33;;
10142;SDS011;5112;54.088;13.446;2023-03-31T09:35:40;13.53;;;9.00;;
10142;SDS011;5112;54.088;13.446;2023-03-31T09:45:43;13.67;;;7.80;;
10142;SDS011;5112;54.088;13.446;2023-03-31T09:55:46;9.60;;;7.77;;
10142;SDS011;5112;54.088;13.446;2023-03-31T10:05:54;9.23;;;6.60;;
10142;SDS011;5112;54.088;13.446;2023-03-31T10:16:01;11.93;;;7.13;;
10142;SDS011;5112;54.088;13.446;2023-03-31T10:26:10;8.27;;;6.57;;
10142;SDS011;5112;54.088;13.446;2023-03-31T10:36:18;6.27;;;4.77;;
10142;SDS011;5112;54.088;13.446;2023-03-31T10:46:38;8.10;;;4.57;;
10142;SDS011;5112;54.088;13.446;2023-03-31T10:56:42;6.70;;;4.03;;
10142;SDS011;5112;54.088;13.446;2023-03-31T11:06:51;8.47;;;4.27;;
10142;SDS011;5112;54.088;13.446;2023-03-31T11:16:58;7.33;;;4.30;;
10142;SDS011;5112;54.088;13.446;2023-03-31T11:27:07;7.17;;;3.80;;
10142;SDS011;5112;54.088;13.446;2023-03-31T11:37:34;8.23;;;4.43;;
10142;SDS011;5112;54.088;13.446;2023-03-31T11:47:43;5.70;;;3.73;;
10142;SDS011;5112;54.088;13.446;2023-03-31T11:57:50;4.30;;;3.50;;
10142;SDS011;5112;54.088;13.446;2023-03-31T12:08:00;9.37;;;4.47;;
10142;SDS011;5112;54.088;13.446;2023-03-31T12:18:08;7.37;;;3.73;;
10142;SDS011;5112;54.088;13.446;2023-03-31T12:28:14;12.17;;;4.07;;
10142;SDS011;5112;54.088;13.446;2023-03-31T12:38:21;6.73;;;3.10;;
10142;SDS011;5112;54.088;13.446;2023-03-31T12:48:45;3.87;;;2.30;;
10142;SDS011;5112;54.088;13.446;2023-03-31T13:19:53;5.00;;;2.40;;
10142;SDS011;5112;54.088;13.446;2023-03-31T13:29:58;5.17;;;2.80;;
10142;SDS011;5112;54.088;13.446;2023-03-31T13:40:10;5.17;;;2.70;;
10142;SDS011;5112;54.088;13.446;2023-03-31T13:50:33;8.63;;;3.23;;
10142;SDS011;5112;54.088;13.446;2023-03-31T14:00:44;5.57;;;2.50;;
10142;SDS011;5112;54.088;13.446;2023-03-31T14:10:56;7.37;;;2.77;;
10142;SDS011;5112;54.088;13.446;2023-03-31T14:21:18;5.37;;;2.70;;
10142;SDS011;5112;54.088;13.446;2023-03-31T14:31:25;5.17;;;3.23;;
10142;SDS011;5112;54.088;13.446;2023-03-31T14:41:34;7.33;;;3.10;;
10142;SDS011;5112;54.088;13.446;2023-03-31T14:51:41;5.50;;;2.60;;
10142;SDS011;5112;54.088;13.446;2023-03-31T15:01:44;6.50;;;2.47;;
10142;SDS011;5112;54.088;13.446;2023-03-31T15:11:52;4.47;;;2.70;;
10142;SDS011;5112;54.088;13.446;2023-03-31T15:21:57;5.33;;;2.63;;
10142;SDS011;5112;54.088;13.446;2023-03-31T15:32:02;4.00;;;2.83;;
10142;SDS011;5112;54.088;13.446;2023-03-31T15:42:07;3.37;;;2.97;;
10142;SDS011;5112;54.088;13.446;2023-03-31T15:52:18;7.90;;;5.80;;
10142;SDS011;5112;54.088;13.446;2023-03-31T16:02:22;3.87;;;3.47;;
10142;SDS011;5112;54.088;13.446;2023-03-31T16:12:28;8.73;;;4.10;;
10142;SDS011;5112;54.088;13.446;2023-03-31T16:22:34;3.23;;;2.20;;
10142;SDS011;5112;54.088;13.446;2023-03-31T16:32:54;7.77;;;3.07;;
10142;SDS011;5112;54.088;13.446;2023-03-31T16:43:05;3.87;;;2.80;;
10142;SDS011;5112;54.088;13.446;2023-03-31T16:53:09;4.97;;;3.10;;
10142;SDS011;5112;54.088;13.446;2023-03-31T17:03:12;5.37;;;3.00;;
10142;SDS011;5112;54.088;13.446;2023-03-31T17:13:16;6.30;;;4.30;;
10142;SDS011;5112;54.088;13.446;2023-03-31T17:23:18;5.67;;;3.57;;
10142;SDS011;5112;54.088;13.446;2023-03-31T17:33:21;6.43;;;3.33;;
10142;SDS011;5112;54.088;13.446;2023-03-31T17:43:23;5.40;;;3.70;;
10142;SDS011;5112;54.088;13.446;2023-03-31T17:53:26;4.10;;;3.40;;
10142;SDS011;5112;54.088;13.446;2023-03-31T18:03:29;5.17;;;3.43;;
10142;SDS011;5112;54.088;13.446;2023-03-31T18:13:33;5.23;;;2.97;;
10142;SDS011;5112;54.088;13.446;2023-03-31T18:23:36;8.80;;;5.10;;
10142;SDS011;5112;54.088;13.446;2023-03-31T18:33:39;10.77;;;6.27;;
10142;SDS011;5112;54.088;13.446;2023-03-31T18:43:41;16.00;;;9.20;;
10142;SDS011;5112;54.088;13.446;2023-03-31T18:53:44;15.77;;;9.63;;
10142;SDS011;5112;54.088;13.446;2023-03-31T19:03:46;16.33;;;10.38;;
10142;SDS011;5112;54.088;13.446;2023-03-31T19:13:49;15.67;;;10.27;;
10142;SDS011;5112;54.088;13.446;2023-03-31T19:23:53;14.00;;;10.63;;
10142;SDS011;5112;54.088;13.446;2023-03-31T19:33:56;18.90;;;11.60;;
10142;SDS011;5112;54.088;13.446;2023-03-31T19:43:58;19.58;;;12.90;;
10142;SDS011;5112;54.088;13.446;2023-03-31T19:54:01;15.43;;;12.10;;
10142;SDS011;5112;54.088;13.446;2023-03-31T20:04:03;12.00;;;9.90;;
10142;SDS011;5112;54.088;13.446;2023-03-31T20:14:06;14.77;;;13.07;;
10142;SDS011;5112;54.088;13.446;2023-03-31T20:24:09;14.83;;;11.50;;
10142;SDS011;5112;54.088;13.446;2023-03-31T20:34:17;12.87;;;9.90;;
10142;SDS011;5112;54.088;13.446;2023-03-31T20:44:21;11.70;;;8.77;;
10142;SDS011;5112;54.088;13.446;2023-03-31T20:54:24;9.23;;;7.90;;
10142;SDS011;5112;54.088;13.446;2023-03-31T21:04:26;9.68;;;8.27;;
10142;SDS011;5112;54.088;13.446;2023-03-31T21:14:29;8.43;;;7.47;;
10142;SDS011;5112;54.088;13.446;2023-03-31T21:24:31;6.75;;;6.15;;
10142;SDS011;5112;54.088;13.446;2023-03-31T21:34:34;8.20;;;7.10;;
10142;SDS011;5112;54.088;13.446;2023-03-31T21:44:36;9.23;;;8.33;;
10142;SDS011;5112;54.088;13.446;2023-03-31T21:54:39;7.68;;;6.90;;
10142;SDS011;5112;54.088;13.446;2023-03-31T22:04:40;8.52;;;7.60;;
10142;SDS011;5112;54.088;13.446;2023-03-31T22:14:43;9.25;;;8.27;;
10142;SDS011;5112;54.088;13.446;2023-03-31T22:24:45;10.57;;;9.43;;
10142;SDS011;5112;54.088;13.446;2023-03-31T22:34:48;10.67;;;9.57;;
10142;SDS011;5112;54.088;13.446;2023-03-31T22:44:50;9.60;;;8.03;;
10142;SDS011;5112;54.088;13.446;2023-03-31T22:54:53;7.63;;;6.87;;
10142;SDS011;5112;54.088;13.446;2023-03-31T23:04:55;7.10;;;6.40;;
10142;SDS011;5112;54.088;13.446;2023-03-31T23:14:58;6.03;;;5.47;;
10142;SDS011;5112;54.088;13.446;2023-03-31T23:24:59;5.60;;;5.00;;
10142;SDS011;5112;54.088;13.446;2023-03-31T23:35:03;5.37;;;4.87;;
10142;SDS011;5112;54.088;13.446;2023-03-31T23:45:07;4.23;;;3.80;;
10142;SDS011;5112;54.088;13.446;2023-03-31T23:55:10;5.25;;;4.10;;
